Terminal Aerodrome Forecast
Issued by NWS

Home | Current Version | Previous Version | Text Only | Print | Product List | Glossary Off
Versions: 1 2 3 4 5 6 7 8 9 10 11 12 13

299
FTUS42 KMHX 250537
TAFPGV
TAF
KPGV 250537Z 2506/2606 00000KT 5SM BR SCT007
      TEMPO 2507/2510 3/4SM BR BKN007
     FM251000 00000KT 1SM BR BKN007
     FM251230 VRB04KT 5SM BR SCT250
     FM251400 19006KT P6SM SCT250
     FM252100 22015G25KT P6SM BKN110
     FM260300 31010G19KT P6SM SCT200
      AMD LTD TO CLD VIS AND WIND=

USA.gov is the U.S. government's official web portal to all federal, state and local government web resources and services.